Sun City West, AZ

3:45 PM MST on March 31, 2015 (GMT -0700)
Kingswood Parke | | Change Station
CLOSE
Current Station
Personal Weather Station
Location: Surprise, AZ
Elevation: 1227 ft
Nearby Weather Stations

Elev 1227 ft 33.64 °N, 112.37 °W | Updated 29 seconds ago

Clear
Clear
95.7 °F
Feels Like 91 °F
N
3.5
Wind Variable Wind from North
Gusts 3.5 mph

Today
High -- | Low -- °F
--% Chance of Precip.
Yesterday
High -- | Low -- °F
Precip. -- in
6:18 AM 6:49 PM
Waxing Gibbous, 89% visible
Pressure 29.81 in
Visibility 10.0 miles
Clouds Clear
Heat Index 91 °F
Dew Point 35 °F
Humidity 12%
Rainfall 0.00 in
Snow Depth Not available.
UV 6 out of 12
Pollen 11.10 out of 12
Air Quality Not available.
Flu Activity Not available.
METAR KLUF 312158Z AUTO 22011G15KT 10SM CLR 33/02 A2984 RMK AO2 SLP093 T03340020 $

More Conditions Fewer Conditions

Pressure 29.81 in
Visibility 10.0 miles
Clouds Clear
Heat Index 91 °F
Dew Point 35 °F
Humidity 12%
Rainfall 0.00 in
Snow Depth Not available.
UV 6 out of 12
Pollen 11.10 out of 12
Air Quality Not available.
Flu Activity Not available.
METAR KLUF 312158Z AUTO 22011G15KT 10SM CLR 33/02 A2984 RMK AO2 SLP093 T03340020 $

More Conditions Fewer Conditions

10-Day Weather Forecast

Almanac

Astronomy

Mar. 31, 2015 Rise Set
Actual Time
Civil Twilight
Nautical Twilight
Astronomical Twilight
Moon
Length of Visible Light
Length of Day
Tomorrow will be .
, % of the Moon is Illuminated

Today's Extremes

State Highs State Lows

Community

WunderPhotos

Upload Photos

1,809,864 photos uploaded!

WunderBlogs® & News

Nearby

Air Quality

  Air Quality AQ Index Pollutant
Not available.

Snow Depth

Station Depth Elevation

Earthquake Activity

City Distance Mag. Time & Date
Minimum magnitude displayed is 2.5.

Coastal Water Temperatures

Place Temperature

Stations

Nearby Weather Stations

Station Location Temp. Windchill Dew Point Humidity Wind Precip. Elev Updated Type